sensor_id;sensor_type;location;lat;lon;timestamp;P1;durP1;ratioP1;P2;durP2;ratioP2
33138;SDS011;19501;50.948;5.316;2023-04-05T00:01:29;25.33;;;10.82;;
33138;SDS011;19501;50.948;5.316;2023-04-05T00:03:57;29.65;;;12.23;;
33138;SDS011;19501;50.948;5.316;2023-04-05T00:06:24;32.35;;;13.63;;
33138;SDS011;19501;50.948;5.316;2023-04-05T00:08:54;30.73;;;14.55;;
33138;SDS011;19501;50.948;5.316;2023-04-05T00:11:21;31.40;;;14.07;;
33138;SDS011;19501;50.948;5.316;2023-04-05T00:13:47;29.92;;;12.60;;
33138;SDS011;19501;50.948;5.316;2023-04-05T00:16:16;25.98;;;11.18;;
33138;SDS011;19501;50.948;5.316;2023-04-05T00:18:43;29.50;;;12.02;;
33138;SDS011;19501;50.948;5.316;2023-04-05T00:21:16;34.50;;;13.38;;
33138;SDS011;19501;50.948;5.316;2023-04-05T00:23:46;24.60;;;11.13;;
33138;SDS011;19501;50.948;5.316;2023-04-05T00:26:15;26.20;;;10.20;;
33138;SDS011;19501;50.948;5.316;2023-04-05T00:28:41;26.45;;;11.13;;
33138;SDS011;19501;50.948;5.316;2023-04-05T00:31:07;27.05;;;11.38;;
33138;SDS011;19501;50.948;5.316;2023-04-05T00:33:33;27.73;;;11.55;;
33138;SDS011;19501;50.948;5.316;2023-04-05T00:36:11;32.80;;;11.93;;
33138;SDS011;19501;50.948;5.316;2023-04-05T00:38:38;26.88;;;11.55;;
33138;SDS011;19501;50.948;5.316;2023-04-05T00:41:04;28.73;;;11.82;;
33138;SDS011;19501;50.948;5.316;2023-04-05T00:43:33;32.83;;;12.93;;
33138;SDS011;19501;50.948;5.316;2023-04-05T00:46:01;29.33;;;12.00;;
33138;SDS011;19501;50.948;5.316;2023-04-05T00:48:28;26.55;;;11.52;;
33138;SDS011;19501;50.948;5.316;2023-04-05T00:50:53;28.85;;;11.57;;
33138;SDS011;19501;50.948;5.316;2023-04-05T00:53:20;31.48;;;14.35;;
33138;SDS011;19501;50.948;5.316;2023-04-05T00:55:46;33.45;;;13.13;;
33138;SDS011;19501;50.948;5.316;2023-04-05T00:58:16;26.40;;;11.77;;
33138;SDS011;19501;50.948;5.316;2023-04-05T01:03:34;27.50;;;10.70;;
33138;SDS011;19501;50.948;5.316;2023-04-05T01:06:15;29.58;;;11.43;;
33138;SDS011;19501;50.948;5.316;2023-04-05T01:09:04;30.40;;;12.52;;
33138;SDS011;19501;50.948;5.316;2023-04-05T01:11:30;27.35;;;11.60;;
33138;SDS011;19501;50.948;5.316;2023-04-05T01:13:59;29.65;;;12.38;;
33138;SDS011;19501;50.948;5.316;2023-04-05T01:16:26;28.85;;;12.13;;
33138;SDS011;19501;50.948;5.316;2023-04-05T01:18:53;30.23;;;11.45;;
33138;SDS011;19501;50.948;5.316;2023-04-05T01:26:59;28.27;;;12.25;;
33138;SDS011;19501;50.948;5.316;2023-04-05T01:29:52;29.52;;;12.45;;
33138;SDS011;19501;50.948;5.316;2023-04-05T01:37:29;30.30;;;13.13;;
33138;SDS011;19501;50.948;5.316;2023-04-05T01:39:57;30.33;;;13.35;;
33138;SDS011;19501;50.948;5.316;2023-04-05T01:42:24;30.85;;;13.73;;
33138;SDS011;19501;50.948;5.316;2023-04-05T01:44:50;33.72;;;13.27;;
33138;SDS011;19501;50.948;5.316;2023-04-05T01:47:18;30.05;;;14.25;;
33138;SDS011;19501;50.948;5.316;2023-04-05T01:49:44;34.03;;;14.88;;
33138;SDS011;19501;50.948;5.316;2023-04-05T01:52:10;30.35;;;13.65;;
33138;SDS011;19501;50.948;5.316;2023-04-05T01:54:36;30.90;;;13.48;;
33138;SDS011;19501;50.948;5.316;2023-04-05T01:57:02;30.55;;;13.10;;
33138;SDS011;19501;50.948;5.316;2023-04-05T01:59:28;30.25;;;13.25;;
33138;SDS011;19501;50.948;5.316;2023-04-05T02:01:54;30.17;;;14.25;;
33138;SDS011;19501;50.948;5.316;2023-04-05T02:04:20;31.40;;;14.27;;
33138;SDS011;19501;50.948;5.316;2023-04-05T02:06:46;36.42;;;14.32;;
33138;SDS011;19501;50.948;5.316;2023-04-05T02:09:11;30.10;;;12.02;;
33138;SDS011;19501;50.948;5.316;2023-04-05T02:11:37;33.88;;;14.13;;
33138;SDS011;19501;50.948;5.316;2023-04-05T02:14:03;32.50;;;14.05;;
33138;SDS011;19501;50.948;5.316;2023-04-05T02:16:28;31.73;;;14.35;;
33138;SDS011;19501;50.948;5.316;2023-04-05T02:18:57;33.15;;;14.10;;
33138;SDS011;19501;50.948;5.316;2023-04-05T02:21:23;32.10;;;13.63;;
33138;SDS011;19501;50.948;5.316;2023-04-05T02:23:50;36.83;;;14.98;;
33138;SDS011;19501;50.948;5.316;2023-04-05T02:26:17;29.02;;;13.07;;
33138;SDS011;19501;50.948;5.316;2023-04-05T02:28:42;34.10;;;12.98;;
33138;SDS011;19501;50.948;5.316;2023-04-05T02:31:08;31.45;;;12.88;;
33138;SDS011;19501;50.948;5.316;2023-04-05T02:33:38;31.95;;;13.57;;
33138;SDS011;19501;50.948;5.316;2023-04-05T02:36:05;28.08;;;12.75;;
33138;SDS011;19501;50.948;5.316;2023-04-05T02:38:35;28.77;;;12.23;;
33138;SDS011;19501;50.948;5.316;2023-04-05T02:41:00;31.30;;;13.38;;
33138;SDS011;19501;50.948;5.316;2023-04-05T02:43:26;32.20;;;13.32;;
33138;SDS011;19501;50.948;5.316;2023-04-05T02:45:52;30.08;;;13.48;;
33138;SDS011;19501;50.948;5.316;2023-04-05T02:48:18;32.88;;;13.63;;
33138;SDS011;19501;50.948;5.316;2023-04-05T02:50:47;30.13;;;13.27;;
33138;SDS011;19501;50.948;5.316;2023-04-05T02:53:14;33.50;;;14.13;;
33138;SDS011;19501;50.948;5.316;2023-04-05T02:55:42;32.33;;;14.40;;
33138;SDS011;19501;50.948;5.316;2023-04-05T02:58:15;28.80;;;12.70;;
33138;SDS011;19501;50.948;5.316;2023-04-05T03:00:44;32.15;;;13.63;;
33138;SDS011;19501;50.948;5.316;2023-04-05T03:03:15;30.02;;;13.45;;
33138;SDS011;19501;50.948;5.316;2023-04-05T03:05:44;28.17;;;12.48;;
33138;SDS011;19501;50.948;5.316;2023-04-05T03:08:11;29.35;;;12.50;;
33138;SDS011;19501;50.948;5.316;2023-04-05T03:10:46;34.75;;;14.02;;
33138;SDS011;19501;50.948;5.316;2023-04-05T03:13:15;30.45;;;13.05;;
33138;SDS011;19501;50.948;5.316;2023-04-05T03:15:40;28.33;;;12.88;;
33138;SDS011;19501;50.948;5.316;2023-04-05T03:18:06;27.77;;;12.98;;
33138;SDS011;19501;50.948;5.316;2023-04-05T03:20:36;31.80;;;14.18;;
33138;SDS011;19501;50.948;5.316;2023-04-05T03:25:35;31.42;;;12.23;;
33138;SDS011;19501;50.948;5.316;2023-04-05T03:28:04;32.85;;;12.80;;
33138;SDS011;19501;50.948;5.316;2023-04-05T03:30:32;28.75;;;12.90;;
33138;SDS011;19501;50.948;5.316;2023-04-05T03:32:59;32.45;;;13.65;;
33138;SDS011;19501;50.948;5.316;2023-04-05T03:35:25;33.83;;;14.10;;
33138;SDS011;19501;50.948;5.316;2023-04-05T03:37:54;33.50;;;14.75;;
33138;SDS011;19501;50.948;5.316;2023-04-05T03:40:23;31.30;;;13.63;;
33138;SDS011;19501;50.948;5.316;2023-04-05T03:42:49;35.88;;;13.85;;
33138;SDS011;19501;50.948;5.316;2023-04-05T03:45:15;34.40;;;13.63;;
33138;SDS011;19501;50.948;5.316;2023-04-05T03:47:41;31.30;;;13.05;;
33138;SDS011;19501;50.948;5.316;2023-04-05T03:50:07;28.67;;;12.95;;
33138;SDS011;19501;50.948;5.316;2023-04-05T03:52:33;29.17;;;12.32;;
33138;SDS011;19501;50.948;5.316;2023-04-05T03:54:59;32.58;;;13.27;;
33138;SDS011;19501;50.948;5.316;2023-04-05T03:57:25;28.27;;;12.45;;
33138;SDS011;19501;50.948;5.316;2023-04-05T03:59:53;31.48;;;13.85;;
33138;SDS011;19501;50.948;5.316;2023-04-05T04:02:18;31.75;;;12.98;;
33138;SDS011;19501;50.948;5.316;2023-04-05T04:04:44;30.17;;;14.07;;
33138;SDS011;19501;50.948;5.316;2023-04-05T04:07:11;30.50;;;13.95;;
33138;SDS011;19501;50.948;5.316;2023-04-05T04:09:37;31.27;;;13.43;;
33138;SDS011;19501;50.948;5.316;2023-04-05T04:12:03;32.63;;;13.85;;
33138;SDS011;19501;50.948;5.316;2023-04-05T04:14:28;29.75;;;12.93;;
33138;SDS011;19501;50.948;5.316;2023-04-05T04:16:54;29.83;;;13.43;;
33138;SDS011;19501;50.948;5.316;2023-04-05T04:19:19;29.40;;;12.50;;
33138;SDS011;19501;50.948;5.316;2023-04-05T04:21:45;34.60;;;13.60;;
33138;SDS011;19501;50.948;5.316;2023-04-05T04:24:16;31.20;;;13.27;;
33138;SDS011;19501;50.948;5.316;2023-04-05T04:26:42;31.58;;;14.15;;
33138;SDS011;19501;50.948;5.316;2023-04-05T04:29:09;31.60;;;14.82;;
33138;SDS011;19501;50.948;5.316;2023-04-05T04:31:37;29.58;;;13.10;;
33138;SDS011;19501;50.948;5.316;2023-04-05T04:34:03;31.95;;;13.38;;
33138;SDS011;19501;50.948;5.316;2023-04-05T04:36:29;31.15;;;13.98;;
33138;SDS011;19501;50.948;5.316;2023-04-05T04:38:59;33.08;;;13.60;;
33138;SDS011;19501;50.948;5.316;2023-04-05T04:41:29;38.55;;;14.05;;
33138;SDS011;19501;50.948;5.316;2023-04-05T04:43:57;34.70;;;14.05;;
33138;SDS011;19501;50.948;5.316;2023-04-05T04:46:30;33.85;;;13.90;;
33138;SDS011;19501;50.948;5.316;2023-04-05T04:49:06;32.28;;;13.43;;
33138;SDS011;19501;50.948;5.316;2023-04-05T04:51:32;34.45;;;13.80;;
33138;SDS011;19501;50.948;5.316;2023-04-05T04:53:58;30.73;;;13.43;;
33138;SDS011;19501;50.948;5.316;2023-04-05T04:56:24;37.28;;;14.13;;
33138;SDS011;19501;50.948;5.316;2023-04-05T04:58:53;35.10;;;14.77;;
33138;SDS011;19501;50.948;5.316;2023-04-05T05:01:20;32.20;;;14.30;;
33138;SDS011;19501;50.948;5.316;2023-04-05T05:03:46;33.83;;;13.85;;
33138;SDS011;19501;50.948;5.316;2023-04-05T05:06:17;33.90;;;13.82;;
33138;SDS011;19501;50.948;5.316;2023-04-05T05:08:48;34.38;;;14.70;;
33138;SDS011;19501;50.948;5.316;2023-04-05T05:11:15;34.50;;;15.57;;
33138;SDS011;19501;50.948;5.316;2023-04-05T05:13:40;35.78;;;15.48;;
33138;SDS011;19501;50.948;5.316;2023-04-05T05:16:07;32.42;;;15.45;;
33138;SDS011;19501;50.948;5.316;2023-04-05T05:18:33;34.65;;;15.65;;
33138;SDS011;19501;50.948;5.316;2023-04-05T05:20:59;31.70;;;13.35;;
33138;SDS011;19501;50.948;5.316;2023-04-05T05:23:24;31.52;;;13.43;;
33138;SDS011;19501;50.948;5.316;2023-04-05T05:25:53;34.05;;;13.32;;
33138;SDS011;19501;50.948;5.316;2023-04-05T05:28:23;31.73;;;13.98;;
33138;SDS011;19501;50.948;5.316;2023-04-05T05:30:49;32.45;;;13.30;;
33138;SDS011;19501;50.948;5.316;2023-04-05T05:33:15;31.77;;;14.52;;
33138;SDS011;19501;50.948;5.316;2023-04-05T05:35:42;30.60;;;13.52;;
33138;SDS011;19501;50.948;5.316;2023-04-05T05:38:08;30.83;;;13.25;;
33138;SDS011;19501;50.948;5.316;2023-04-05T05:40:36;35.55;;;14.18;;
33138;SDS011;19501;50.948;5.316;2023-04-05T05:43:01;36.42;;;14.45;;
33138;SDS011;19501;50.948;5.316;2023-04-05T05:45:27;31.70;;;13.88;;
33138;SDS011;19501;50.948;5.316;2023-04-05T05:47:52;31.85;;;12.70;;
33138;SDS011;19501;50.948;5.316;2023-04-05T05:50:20;29.98;;;13.20;;
33138;SDS011;19501;50.948;5.316;2023-04-05T05:52:45;34.72;;;13.02;;
33138;SDS011;19501;50.948;5.316;2023-04-05T05:55:11;30.67;;;13.30;;
33138;SDS011;19501;50.948;5.316;2023-04-05T05:57:37;36.72;;;14.75;;
33138;SDS011;19501;50.948;5.316;2023-04-05T06:00:02;33.03;;;14.68;;
33138;SDS011;19501;50.948;5.316;2023-04-05T06:02:33;31.80;;;13.98;;
33138;SDS011;19501;50.948;5.316;2023-04-05T06:04:59;35.35;;;13.98;;
33138;SDS011;19501;50.948;5.316;2023-04-05T06:07:26;35.53;;;14.02;;
33138;SDS011;19501;50.948;5.316;2023-04-05T06:09:52;33.97;;;14.20;;
33138;SDS011;19501;50.948;5.316;2023-04-05T06:12:20;39.55;;;15.25;;
33138;SDS011;19501;50.948;5.316;2023-04-05T06:14:46;31.75;;;12.93;;
33138;SDS011;19501;50.948;5.316;2023-04-05T06:17:12;33.47;;;15.02;;
33138;SDS011;19501;50.948;5.316;2023-04-05T06:19:37;38.35;;;15.77;;
33138;SDS011;19501;50.948;5.316;2023-04-05T06:22:03;31.25;;;14.48;;
33138;SDS011;19501;50.948;5.316;2023-04-05T06:24:29;41.58;;;15.38;;
33138;SDS011;19501;50.948;5.316;2023-04-05T06:26:56;35.10;;;15.40;;
33138;SDS011;19501;50.948;5.316;2023-04-05T06:29:22;33.45;;;15.32;;
33138;SDS011;19501;50.948;5.316;2023-04-05T06:31:48;37.13;;;16.05;;
33138;SDS011;19501;50.948;5.316;2023-04-05T06:34:16;33.20;;;15.57;;
33138;SDS011;19501;50.948;5.316;2023-04-05T06:36:44;36.00;;;16.58;;
33138;SDS011;19501;50.948;5.316;2023-04-05T06:39:10;38.47;;;17.38;;
33138;SDS011;19501;50.948;5.316;2023-04-05T06:41:36;37.30;;;16.23;;
33138;SDS011;19501;50.948;5.316;2023-04-05T06:44:01;35.85;;;16.10;;
33138;SDS011;19501;50.948;5.316;2023-04-05T06:46:27;38.28;;;17.65;;
33138;SDS011;19501;50.948;5.316;2023-04-05T06:48:53;37.45;;;16.90;;
33138;SDS011;19501;50.948;5.316;2023-04-05T06:51:19;41.75;;;17.70;;
33138;SDS011;19501;50.948;5.316;2023-04-05T06:53:45;39.90;;;18.25;;
33138;SDS011;19501;50.948;5.316;2023-04-05T06:56:11;40.17;;;18.52;;
33138;SDS011;19501;50.948;5.316;2023-04-05T06:58:36;39.65;;;18.35;;
33138;SDS011;19501;50.948;5.316;2023-04-05T07:01:02;39.47;;;19.35;;
33138;SDS011;19501;50.948;5.316;2023-04-05T07:03:28;41.60;;;18.92;;
33138;SDS011;19501;50.948;5.316;2023-04-05T07:05:58;40.50;;;19.00;;
33138;SDS011;19501;50.948;5.316;2023-04-05T07:08:25;37.38;;;19.10;;
33138;SDS011;19501;50.948;5.316;2023-04-05T07:10:51;41.70;;;18.77;;
33138;SDS011;19501;50.948;5.316;2023-04-05T07:13:20;37.03;;;17.65;;
33138;SDS011;19501;50.948;5.316;2023-04-05T07:15:47;40.50;;;18.95;;
33138;SDS011;19501;50.948;5.316;2023-04-05T07:18:13;39.00;;;18.50;;
33138;SDS011;19501;50.948;5.316;2023-04-05T07:20:39;37.88;;;19.23;;
33138;SDS011;19501;50.948;5.316;2023-04-05T07:23:05;40.67;;;19.30;;
33138;SDS011;19501;50.948;5.316;2023-04-05T07:25:31;36.70;;;19.15;;
33138;SDS011;19501;50.948;5.316;2023-04-05T07:27:57;43.92;;;21.00;;
33138;SDS011;19501;50.948;5.316;2023-04-05T07:30:26;46.70;;;21.77;;
33138;SDS011;19501;50.948;5.316;2023-04-05T07:32:52;42.70;;;20.13;;
33138;SDS011;19501;50.948;5.316;2023-04-05T07:35:19;40.75;;;21.10;;
33138;SDS011;19501;50.948;5.316;2023-04-05T07:37:44;42.63;;;21.75;;
33138;SDS011;19501;50.948;5.316;2023-04-05T07:40:10;40.05;;;19.80;;
33138;SDS011;19501;50.948;5.316;2023-04-05T07:42:36;38.58;;;19.20;;
33138;SDS011;19501;50.948;5.316;2023-04-05T07:45:03;37.25;;;19.58;;
33138;SDS011;19501;50.948;5.316;2023-04-05T07:47:29;41.45;;;20.52;;
33138;SDS011;19501;50.948;5.316;2023-04-05T07:49:58;38.55;;;20.55;;
33138;SDS011;19501;50.948;5.316;2023-04-05T07:52:26;39.72;;;19.02;;
33138;SDS011;19501;50.948;5.316;2023-04-05T07:54:52;35.88;;;18.90;;
33138;SDS011;19501;50.948;5.316;2023-04-05T07:57:19;36.63;;;17.67;;
33138;SDS011;19501;50.948;5.316;2023-04-05T07:59:46;32.42;;;16.65;;
33138;SDS011;19501;50.948;5.316;2023-04-05T08:02:15;35.17;;;17.45;;
33138;SDS011;19501;50.948;5.316;2023-04-05T08:04:40;33.80;;;16.20;;
33138;SDS011;19501;50.948;5.316;2023-04-05T08:07:06;42.13;;;19.27;;
33138;SDS011;19501;50.948;5.316;2023-04-05T08:09:32;43.85;;;21.75;;
33138;SDS011;19501;50.948;5.316;2023-04-05T08:11:58;47.05;;;25.45;;
33138;SDS011;19501;50.948;5.316;2023-04-05T08:14:26;52.65;;;27.63;;
33138;SDS011;19501;50.948;5.316;2023-04-05T08:16:52;59.80;;;32.17;;
33138;SDS011;19501;50.948;5.316;2023-04-05T08:19:18;43.80;;;23.52;;
33138;SDS011;19501;50.948;5.316;2023-04-05T08:21:43;43.33;;;22.42;;
33138;SDS011;19501;50.948;5.316;2023-04-05T08:24:09;40.67;;;21.83;;
33138;SDS011;19501;50.948;5.316;2023-04-05T08:26:35;46.13;;;22.38;;
33138;SDS011;19501;50.948;5.316;2023-04-05T08:29:00;48.47;;;24.05;;
33138;SDS011;19501;50.948;5.316;2023-04-05T08:31:26;50.78;;;23.13;;
33138;SDS011;19501;50.948;5.316;2023-04-05T08:33:52;41.35;;;20.70;;
33138;SDS011;19501;50.948;5.316;2023-04-05T08:36:18;43.20;;;19.50;;
33138;SDS011;19501;50.948;5.316;2023-04-05T08:38:43;36.63;;;15.45;;
33138;SDS011;19501;50.948;5.316;2023-04-05T08:41:20;31.30;;;13.98;;
33138;SDS011;19501;50.948;5.316;2023-04-05T08:43:54;29.67;;;14.02;;
33138;SDS011;19501;50.948;5.316;2023-04-05T08:46:24;32.67;;;15.05;;
33138;SDS011;19501;50.948;5.316;2023-04-05T08:48:51;34.53;;;15.70;;
33138;SDS011;19501;50.948;5.316;2023-04-05T08:51:20;34.35;;;17.55;;
33138;SDS011;19501;50.948;5.316;2023-04-05T08:53:46;34.08;;;15.90;;
33138;SDS011;19501;50.948;5.316;2023-04-05T08:56:19;36.13;;;16.27;;
33138;SDS011;19501;50.948;5.316;2023-04-05T08:58:55;33.13;;;15.32;;
33138;SDS011;19501;50.948;5.316;2023-04-05T09:01:27;30.25;;;14.55;;
33138;SDS011;19501;50.948;5.316;2023-04-05T09:03:55;34.17;;;15.65;;
33138;SDS011;19501;50.948;5.316;2023-04-05T09:06:23;31.65;;;14.45;;
33138;SDS011;19501;50.948;5.316;2023-04-05T09:08:51;31.73;;;14.93;;
33138;SDS011;19501;50.948;5.316;2023-04-05T09:11:17;30.70;;;14.23;;
33138;SDS011;19501;50.948;5.316;2023-04-05T09:13:44;31.75;;;14.40;;
33138;SDS011;19501;50.948;5.316;2023-04-05T09:16:10;24.40;;;10.98;;
33138;SDS011;19501;50.948;5.316;2023-04-05T09:18:37;26.88;;;10.82;;
33138;SDS011;19501;50.948;5.316;2023-04-05T09:21:03;20.25;;;8.38;;
33138;SDS011;19501;50.948;5.316;2023-04-05T09:23:29;20.42;;;6.95;;
33138;SDS011;19501;50.948;5.316;2023-04-05T09:25:57;16.20;;;6.60;;
33138;SDS011;19501;50.948;5.316;2023-04-05T09:28:30;19.75;;;7.25;;
33138;SDS011;19501;50.948;5.316;2023-04-05T09:31:05;25.48;;;8.93;;
33138;SDS011;19501;50.948;5.316;2023-04-05T09:33:31;19.83;;;8.48;;
33138;SDS011;19501;50.948;5.316;2023-04-05T09:35:58;23.35;;;8.75;;
33138;SDS011;19501;50.948;5.316;2023-04-05T09:38:42;21.05;;;8.75;;
33138;SDS011;19501;50.948;5.316;2023-04-05T09:41:09;23.52;;;8.43;;
33138;SDS011;19501;50.948;5.316;2023-04-05T09:43:36;22.52;;;9.20;;
33138;SDS011;19501;50.948;5.316;2023-04-05T09:46:28;22.95;;;8.07;;
33138;SDS011;19501;50.948;5.316;2023-04-05T09:48:53;21.50;;;8.75;;
33138;SDS011;19501;50.948;5.316;2023-04-05T09:51:18;24.85;;;10.10;;
33138;SDS011;19501;50.948;5.316;2023-04-05T09:56:24;21.83;;;9.00;;
33138;SDS011;19501;50.948;5.316;2023-04-05T09:58:50;23.30;;;9.57;;
33138;SDS011;19501;50.948;5.316;2023-04-05T10:01:16;24.08;;;9.50;;
33138;SDS011;19501;50.948;5.316;2023-04-05T10:03:46;24.42;;;9.43;;
33138;SDS011;19501;50.948;5.316;2023-04-05T10:06:14;27.10;;;9.48;;
33138;SDS011;19501;50.948;5.316;2023-04-05T10:08:40;19.98;;;8.10;;
33138;SDS011;19501;50.948;5.316;2023-04-05T10:11:08;22.45;;;9.32;;
33138;SDS011;19501;50.948;5.316;2023-04-05T10:13:35;23.17;;;8.45;;
33138;SDS011;19501;50.948;5.316;2023-04-05T10:16:03;25.55;;;9.95;;
33138;SDS011;19501;50.948;5.316;2023-04-05T10:18:33;21.20;;;8.70;;
33138;SDS011;19501;50.948;5.316;2023-04-05T10:21:07;22.55;;;9.23;;
33138;SDS011;19501;50.948;5.316;2023-04-05T10:23:35;22.52;;;8.52;;
33138;SDS011;19501;50.948;5.316;2023-04-05T10:26:07;18.30;;;8.20;;
33138;SDS011;19501;50.948;5.316;2023-04-05T10:28:51;22.58;;;8.18;;
33138;SDS011;19501;50.948;5.316;2023-04-05T10:32:08;20.58;;;8.43;;
33138;SDS011;19501;50.948;5.316;2023-04-05T10:34:20;23.42;;;10.45;;
33138;SDS011;19501;50.948;5.316;2023-04-05T10:36:56;25.80;;;8.95;;
33138;SDS011;19501;50.948;5.316;2023-04-05T10:39:44;21.33;;;8.57;;
33138;SDS011;19501;50.948;5.316;2023-04-05T10:45:03;21.48;;;8.95;;
33138;SDS011;19501;50.948;5.316;2023-04-05T10:47:36;21.73;;;8.77;;
33138;SDS011;19501;50.948;5.316;2023-04-05T10:50:07;22.80;;;9.85;;
33138;SDS011;19501;50.948;5.316;2023-04-05T10:52:38;19.33;;;9.02;;
33138;SDS011;19501;50.948;5.316;2023-04-05T10:55:05;23.42;;;8.70;;
33138;SDS011;19501;50.948;5.316;2023-04-05T10:57:34;23.73;;;8.82;;
33138;SDS011;19501;50.948;5.316;2023-04-05T11:00:01;18.38;;;8.88;;
33138;SDS011;19501;50.948;5.316;2023-04-05T11:02:27;19.88;;;9.10;;
33138;SDS011;19501;50.948;5.316;2023-04-05T11:04:54;19.90;;;8.27;;
33138;SDS011;19501;50.948;5.316;2023-04-05T11:07:23;21.90;;;9.00;;
33138;SDS011;19501;50.948;5.316;2023-04-05T11:09:49;22.50;;;10.05;;
33138;SDS011;19501;50.948;5.316;2023-04-05T11:18:39;22.52;;;10.38;;
33138;SDS011;19501;50.948;5.316;2023-04-05T11:20:53;20.17;;;9.02;;
33138;SDS011;19501;50.948;5.316;2023-04-05T11:23:30;20.95;;;9.60;;
33138;SDS011;19501;50.948;5.316;2023-04-05T11:26:03;21.83;;;9.27;;
33138;SDS011;19501;50.948;5.316;2023-04-05T11:28:34;20.50;;;9.50;;
33138;SDS011;19501;50.948;5.316;2023-04-05T11:31:15;21.02;;;9.60;;
33138;SDS011;19501;50.948;5.316;2023-04-05T11:36:12;25.58;;;10.93;;
33138;SDS011;19501;50.948;5.316;2023-04-05T11:39:12;20.42;;;9.05;;
33138;SDS011;19501;50.948;5.316;2023-04-05T11:44:18;20.00;;;8.38;;
33138;SDS011;19501;50.948;5.316;2023-04-05T11:46:45;19.83;;;9.32;;
33138;SDS011;19501;50.948;5.316;2023-04-05T11:49:13;21.38;;;10.00;;
33138;SDS011;19501;50.948;5.316;2023-04-05T11:51:40;17.17;;;8.82;;
33138;SDS011;19501;50.948;5.316;2023-04-05T11:54:12;18.83;;;9.73;;
33138;SDS011;19501;50.948;5.316;2023-04-05T11:56:38;19.67;;;9.63;;
33138;SDS011;19501;50.948;5.316;2023-04-05T11:59:05;21.05;;;9.52;;
33138;SDS011;19501;50.948;5.316;2023-04-05T12:01:33;19.83;;;9.13;;
33138;SDS011;19501;50.948;5.316;2023-04-05T12:03:59;21.13;;;9.65;;
33138;SDS011;19501;50.948;5.316;2023-04-05T12:06:25;19.83;;;9.63;;
33138;SDS011;19501;50.948;5.316;2023-04-05T12:08:50;22.05;;;10.07;;
33138;SDS011;19501;50.948;5.316;2023-04-05T12:11:27;18.70;;;9.25;;
33138;SDS011;19501;50.948;5.316;2023-04-05T12:13:55;20.23;;;10.23;;
33138;SDS011;19501;50.948;5.316;2023-04-05T12:16:25;19.77;;;9.13;;
33138;SDS011;19501;50.948;5.316;2023-04-05T12:18:52;19.60;;;9.32;;
33138;SDS011;19501;50.948;5.316;2023-04-05T12:21:18;23.05;;;10.68;;
33138;SDS011;19501;50.948;5.316;2023-04-05T12:23:45;18.45;;;9.27;;
33138;SDS011;19501;50.948;5.316;2023-04-05T12:26:11;18.75;;;8.65;;
33138;SDS011;19501;50.948;5.316;2023-04-05T12:28:57;18.80;;;9.40;;
33138;SDS011;19501;50.948;5.316;2023-04-05T12:34:09;17.60;;;8.90;;
33138;SDS011;19501;50.948;5.316;2023-04-05T12:36:36;24.60;;;9.95;;
33138;SDS011;19501;50.948;5.316;2023-04-05T12:39:08;24.17;;;9.40;;
33138;SDS011;19501;50.948;5.316;2023-04-05T12:41:38;19.25;;;9.25;;
33138;SDS011;19501;50.948;5.316;2023-04-05T12:44:05;19.60;;;9.50;;
33138;SDS011;19501;50.948;5.316;2023-04-05T12:46:41;19.40;;;9.63;;
33138;SDS011;19501;50.948;5.316;2023-04-05T12:49:15;19.88;;;9.52;;
33138;SDS011;19501;50.948;5.316;2023-04-05T12:51:44;18.33;;;8.77;;
33138;SDS011;19501;50.948;5.316;2023-04-05T12:54:14;18.67;;;9.13;;
33138;SDS011;19501;50.948;5.316;2023-04-05T12:56:48;19.05;;;9.68;;
33138;SDS011;19501;50.948;5.316;2023-04-05T12:59:14;20.42;;;9.85;;
33138;SDS011;19501;50.948;5.316;2023-04-05T13:01:40;19.27;;;9.32;;
33138;SDS011;19501;50.948;5.316;2023-04-05T13:04:06;18.70;;;9.30;;
33138;SDS011;19501;50.948;5.316;2023-04-05T13:06:31;24.50;;;9.90;;
33138;SDS011;19501;50.948;5.316;2023-04-05T13:08:57;21.40;;;9.75;;
33138;SDS011;19501;50.948;5.316;2023-04-05T13:11:23;18.77;;;9.27;;
33138;SDS011;19501;50.948;5.316;2023-04-05T13:13:49;23.10;;;10.13;;
33138;SDS011;19501;50.948;5.316;2023-04-05T13:16:17;19.65;;;9.63;;
33138;SDS011;19501;50.948;5.316;2023-04-05T13:18:43;20.95;;;10.80;;
33138;SDS011;19501;50.948;5.316;2023-04-05T13:21:09;18.58;;;8.98;;
33138;SDS011;19501;50.948;5.316;2023-04-05T13:23:35;21.73;;;10.73;;
33138;SDS011;19501;50.948;5.316;2023-04-05T13:26:02;22.00;;;10.07;;
33138;SDS011;19501;50.948;5.316;2023-04-05T13:28:28;21.40;;;9.63;;
33138;SDS011;19501;50.948;5.316;2023-04-05T13:30:54;19.40;;;9.98;;
33138;SDS011;19501;50.948;5.316;2023-04-05T13:33:20;21.08;;;11.05;;
33138;SDS011;19501;50.948;5.316;2023-04-05T13:35:46;22.30;;;10.48;;
33138;SDS011;19501;50.948;5.316;2023-04-05T13:38:12;19.10;;;10.20;;
33138;SDS011;19501;50.948;5.316;2023-04-05T13:40:38;21.98;;;11.05;;
33138;SDS011;19501;50.948;5.316;2023-04-05T13:43:03;21.92;;;10.35;;
33138;SDS011;19501;50.948;5.316;2023-04-05T13:45:29;20.88;;;11.13;;
33138;SDS011;19501;50.948;5.316;2023-04-05T13:47:58;22.65;;;11.25;;
33138;SDS011;19501;50.948;5.316;2023-04-05T13:50:26;21.80;;;10.40;;
33138;SDS011;19501;50.948;5.316;2023-04-05T13:52:52;21.08;;;11.13;;
33138;SDS011;19501;50.948;5.316;2023-04-05T13:55:18;21.58;;;11.68;;
33138;SDS011;19501;50.948;5.316;2023-04-05T13:57:43;25.00;;;12.10;;
33138;SDS011;19501;50.948;5.316;2023-04-05T14:00:09;24.30;;;12.38;;
33138;SDS011;19501;50.948;5.316;2023-04-05T14:02:35;25.60;;;12.85;;
33138;SDS011;19501;50.948;5.316;2023-04-05T14:05:01;24.13;;;12.05;;
33138;SDS011;19501;50.948;5.316;2023-04-05T14:07:29;27.20;;;12.98;;
33138;SDS011;19501;50.948;5.316;2023-04-05T14:09:55;22.92;;;12.18;;
33138;SDS011;19501;50.948;5.316;2023-04-05T14:12:24;25.08;;;12.30;;
33138;SDS011;19501;50.948;5.316;2023-04-05T14:14:49;25.55;;;13.02;;
33138;SDS011;19501;50.948;5.316;2023-04-05T14:17:15;22.83;;;12.40;;
33138;SDS011;19501;50.948;5.316;2023-04-05T14:19:42;23.23;;;12.10;;
33138;SDS011;19501;50.948;5.316;2023-04-05T14:22:07;25.88;;;11.68;;
33138;SDS011;19501;50.948;5.316;2023-04-05T14:24:33;24.13;;;12.48;;
33138;SDS011;19501;50.948;5.316;2023-04-05T14:26:59;24.35;;;12.77;;
33138;SDS011;19501;50.948;5.316;2023-04-05T14:29:25;24.52;;;12.18;;
33138;SDS011;19501;50.948;5.316;2023-04-05T14:31:51;24.17;;;11.73;;
33138;SDS011;19501;50.948;5.316;2023-04-05T14:34:22;23.23;;;11.55;;
33138;SDS011;19501;50.948;5.316;2023-04-05T14:36:47;25.88;;;11.88;;
33138;SDS011;19501;50.948;5.316;2023-04-05T14:39:13;24.45;;;12.73;;
33138;SDS011;19501;50.948;5.316;2023-04-05T14:41:39;28.02;;;12.15;;
33138;SDS011;19501;50.948;5.316;2023-04-05T14:44:05;23.05;;;12.05;;
33138;SDS011;19501;50.948;5.316;2023-04-05T14:46:30;24.40;;;12.13;;
33138;SDS011;19501;50.948;5.316;2023-04-05T14:48:56;26.08;;;12.45;;
33138;SDS011;19501;50.948;5.316;2023-04-05T14:51:22;25.17;;;13.32;;
33138;SDS011;19501;50.948;5.316;2023-04-05T14:53:48;25.58;;;12.25;;
33138;SDS011;19501;50.948;5.316;2023-04-05T14:56:16;26.63;;;12.90;;
33138;SDS011;19501;50.948;5.316;2023-04-05T14:58:41;24.95;;;12.65;;
33138;SDS011;19501;50.948;5.316;2023-04-05T15:01:07;25.85;;;12.25;;
33138;SDS011;19501;50.948;5.316;2023-04-05T15:03:34;25.10;;;13.57;;